sensor_id;sensor_type;location;lat;lon;timestamp;temperature;humidity
20973;DHT22;10645;52.370;13.314;2023-04-06T00:01:40;-0.20;99.90
20973;DHT22;10645;52.370;13.314;2023-04-06T00:04:07;-0.30;99.90
20973;DHT22;10645;52.370;13.314;2023-04-06T00:06:33;-0.30;99.90
20973;DHT22;10645;52.370;13.314;2023-04-06T00:09:00;-0.30;99.90
20973;DHT22;10645;52.370;13.314;2023-04-06T00:11:26;-0.40;99.90
20973;DHT22;10645;52.370;13.314;2023-04-06T00:13:53;-0.40;99.90
20973;DHT22;10645;52.370;13.314;2023-04-06T00:16:19;-0.50;99.90
20973;DHT22;10645;52.370;13.314;2023-04-06T00:18:46;-0.50;99.90
20973;DHT22;10645;52.370;13.314;2023-04-06T00:21:13;-0.60;99.90
20973;DHT22;10645;52.370;13.314;2023-04-06T00:23:41;-0.60;99.90
20973;DHT22;10645;52.370;13.314;2023-04-06T00:26:08;-0.70;99.90
20973;DHT22;10645;52.370;13.314;2023-04-06T00:28:34;-0.80;99.90
20973;DHT22;10645;52.370;13.314;2023-04-06T00:31:00;-0.80;99.90
20973;DHT22;10645;52.370;13.314;2023-04-06T00:33:26;-0.80;99.90
20973;DHT22;10645;52.370;13.314;2023-04-06T00:35:52;-0.90;99.90
20973;DHT22;10645;52.370;13.314;2023-04-06T00:38:18;-0.90;99.90
20973;DHT22;10645;52.370;13.314;2023-04-06T00:40:45;-0.90;99.90
20973;DHT22;10645;52.370;13.314;2023-04-06T00:43:11;-1.00;99.90
20973;DHT22;10645;52.370;13.314;2023-04-06T00:45:38;-1.00;99.90
20973;DHT22;10645;52.370;13.314;2023-04-06T00:48:05;-1.00;99.90
20973;DHT22;10645;52.370;13.314;2023-04-06T00:50:32;-1.00;99.90
20973;DHT22;10645;52.370;13.314;2023-04-06T00:52:59;-1.00;99.90
20973;DHT22;10645;52.370;13.314;2023-04-06T00:55:27;-1.00;99.90
20973;DHT22;10645;52.370;13.314;2023-04-06T00:57:54;-1.00;99.90
20973;DHT22;10645;52.370;13.314;2023-04-06T01:00:21;-1.00;99.90
20973;DHT22;10645;52.370;13.314;2023-04-06T01:02:51;-1.10;99.90
20973;DHT22;10645;52.370;13.314;2023-04-06T01:05:21;-1.20;99.90
20973;DHT22;10645;52.370;13.314;2023-04-06T01:07:56;-1.30;99.90
20973;DHT22;10645;52.370;13.314;2023-04-06T01:10:27;-1.40;99.90
20973;DHT22;10645;52.370;13.314;2023-04-06T01:13:01;-1.50;99.90
20973;DHT22;10645;52.370;13.314;2023-04-06T01:15:44;-1.50;99.90
20973;DHT22;10645;52.370;13.314;2023-04-06T01:18:15;-1.50;99.90
20973;DHT22;10645;52.370;13.314;2023-04-06T01:20:48;-1.60;99.90
20973;DHT22;10645;52.370;13.314;2023-04-06T01:23:15;-1.60;99.90
20973;DHT22;10645;52.370;13.314;2023-04-06T01:25:45;-1.60;99.90
20973;DHT22;10645;52.370;13.314;2023-04-06T01:28:12;-1.70;99.90
20973;DHT22;10645;52.370;13.314;2023-04-06T01:30:53;-1.70;99.90
20973;DHT22;10645;52.370;13.314;2023-04-06T01:33:38;-1.70;99.90
20973;DHT22;10645;52.370;13.314;2023-04-06T01:36:07;-1.80;99.90
20973;DHT22;10645;52.370;13.314;2023-04-06T01:38:34;-1.80;99.90
20973;DHT22;10645;52.370;13.314;2023-04-06T01:41:01;-1.80;99.90
20973;DHT22;10645;52.370;13.314;2023-04-06T01:43:33;-1.80;99.90
20973;DHT22;10645;52.370;13.314;2023-04-06T01:46:08;-1.80;99.90
20973;DHT22;10645;52.370;13.314;2023-04-06T01:48:36;-1.80;99.90
20973;DHT22;10645;52.370;13.314;2023-04-06T01:51:13;-1.80;99.90
20973;DHT22;10645;52.370;13.314;2023-04-06T01:53:47;-1.80;99.90
20973;DHT22;10645;52.370;13.314;2023-04-06T01:56:14;-1.90;99.90
20973;DHT22;10645;52.370;13.314;2023-04-06T01:58:46;-1.90;99.90
20973;DHT22;10645;52.370;13.314;2023-04-06T02:01:15;-2.00;99.90
20973;DHT22;10645;52.370;13.314;2023-04-06T02:03:50;-1.90;99.90
20973;DHT22;10645;52.370;13.314;2023-04-06T02:06:16;-2.00;99.90
20973;DHT22;10645;52.370;13.314;2023-04-06T02:08:42;-2.00;99.90
20973;DHT22;10645;52.370;13.314;2023-04-06T02:11:09;-2.00;99.90
20973;DHT22;10645;52.370;13.314;2023-04-06T02:13:45;-2.10;99.90
20973;DHT22;10645;52.370;13.314;2023-04-06T02:16:11;-2.10;99.90
20973;DHT22;10645;52.370;13.314;2023-04-06T02:18:38;-2.10;99.90
20973;DHT22;10645;52.370;13.314;2023-04-06T02:21:04;-2.10;99.90
20973;DHT22;10645;52.370;13.314;2023-04-06T02:23:30;-2.20;99.90
20973;DHT22;10645;52.370;13.314;2023-04-06T02:25:57;-2.20;99.90
20973;DHT22;10645;52.370;13.314;2023-04-06T02:28:23;-2.30;99.90
20973;DHT22;10645;52.370;13.314;2023-04-06T02:30:49;-2.30;99.90
20973;DHT22;10645;52.370;13.314;2023-04-06T02:33:16;-2.40;99.90
20973;DHT22;10645;52.370;13.314;2023-04-06T02:35:45;-2.50;99.90
20973;DHT22;10645;52.370;13.314;2023-04-06T02:38:11;-2.50;99.90
20973;DHT22;10645;52.370;13.314;2023-04-06T02:40:38;-2.60;99.90
20973;DHT22;10645;52.370;13.314;2023-04-06T02:43:16;-2.60;99.90
20973;DHT22;10645;52.370;13.314;2023-04-06T02:45:44;-2.70;99.90
20973;DHT22;10645;52.370;13.314;2023-04-06T02:48:11;-2.60;99.90
20973;DHT22;10645;52.370;13.314;2023-04-06T02:50:37;-2.70;99.90
20973;DHT22;10645;52.370;13.314;2023-04-06T02:53:06;-2.80;99.90
20973;DHT22;10645;52.370;13.314;2023-04-06T02:55:32;-2.80;99.90
20973;DHT22;10645;52.370;13.314;2023-04-06T02:57:59;-2.80;99.90
20973;DHT22;10645;52.370;13.314;2023-04-06T03:00:29;-2.90;99.90
20973;DHT22;10645;52.370;13.314;2023-04-06T03:02:57;-2.90;99.90
20973;DHT22;10645;52.370;13.314;2023-04-06T03:05:25;-2.80;99.90
20973;DHT22;10645;52.370;13.314;2023-04-06T03:07:51;-2.80;99.90
20973;DHT22;10645;52.370;13.314;2023-04-06T03:10:25;-2.80;99.90
20973;DHT22;10645;52.370;13.314;2023-04-06T03:12:52;-2.80;99.90
20973;DHT22;10645;52.370;13.314;2023-04-06T03:15:23;-2.80;99.90
20973;DHT22;10645;52.370;13.314;2023-04-06T03:18:01;-2.80;99.90
20973;DHT22;10645;52.370;13.314;2023-04-06T03:20:35;-2.90;99.90
20973;DHT22;10645;52.370;13.314;2023-04-06T03:23:01;-2.90;99.90
20973;DHT22;10645;52.370;13.314;2023-04-06T03:25:30;-3.00;99.90
20973;DHT22;10645;52.370;13.314;2023-04-06T03:28:00;-3.00;99.90
20973;DHT22;10645;52.370;13.314;2023-04-06T03:30:26;-3.10;99.90
20973;DHT22;10645;52.370;13.314;2023-04-06T03:32:52;-3.10;99.90
20973;DHT22;10645;52.370;13.314;2023-04-06T03:35:20;-3.10;99.90
20973;DHT22;10645;52.370;13.314;2023-04-06T03:37:46;-3.10;99.90
20973;DHT22;10645;52.370;13.314;2023-04-06T03:40:13;-3.20;99.90
20973;DHT22;10645;52.370;13.314;2023-04-06T03:42:39;-3.20;99.90
20973;DHT22;10645;52.370;13.314;2023-04-06T03:45:11;-3.20;99.90
20973;DHT22;10645;52.370;13.314;2023-04-06T03:47:44;-3.20;99.90
20973;DHT22;10645;52.370;13.314;2023-04-06T03:50:11;-3.30;99.90
20973;DHT22;10645;52.370;13.314;2023-04-06T03:52:38;-3.30;99.90
20973;DHT22;10645;52.370;13.314;2023-04-06T03:55:04;-3.30;99.90
20973;DHT22;10645;52.370;13.314;2023-04-06T03:57:30;-3.30;99.90
20973;DHT22;10645;52.370;13.314;2023-04-06T03:59:57;-3.30;99.90
20973;DHT22;10645;52.370;13.314;2023-04-06T04:02:25;-3.30;99.90
20973;DHT22;10645;52.370;13.314;2023-04-06T04:04:51;-3.30;99.90
20973;DHT22;10645;52.370;13.314;2023-04-06T04:07:18;-3.30;99.90
20973;DHT22;10645;52.370;13.314;2023-04-06T04:09:44;-3.30;99.90
20973;DHT22;10645;52.370;13.314;2023-04-06T04:12:11;-3.30;99.90
20973;DHT22;10645;52.370;13.314;2023-04-06T04:14:38;-3.30;99.90
20973;DHT22;10645;52.370;13.314;2023-04-06T04:17:04;-3.30;99.90
20973;DHT22;10645;52.370;13.314;2023-04-06T04:19:30;-3.30;99.90
20973;DHT22;10645;52.370;13.314;2023-04-06T04:21:57;-3.30;99.90
20973;DHT22;10645;52.370;13.314;2023-04-06T04:24:30;-3.40;99.90
20973;DHT22;10645;52.370;13.314;2023-04-06T04:26:57;-3.40;99.90
20973;DHT22;10645;52.370;13.314;2023-04-06T04:29:23;-3.40;99.90
20973;DHT22;10645;52.370;13.314;2023-04-06T04:31:51;-3.40;99.90
20973;DHT22;10645;52.370;13.314;2023-04-06T04:34:18;-3.40;99.90
20973;DHT22;10645;52.370;13.314;2023-04-06T04:36:50;-3.50;99.90
20973;DHT22;10645;52.370;13.314;2023-04-06T04:39:23;-3.50;99.90
20973;DHT22;10645;52.370;13.314;2023-04-06T04:41:57;-3.50;99.90
20973;DHT22;10645;52.370;13.314;2023-04-06T04:44:23;-3.50;99.90
20973;DHT22;10645;52.370;13.314;2023-04-06T04:46:50;-3.50;99.90
20973;DHT22;10645;52.370;13.314;2023-04-06T04:49:18;-3.50;99.90
20973;DHT22;10645;52.370;13.314;2023-04-06T04:51:45;-3.50;99.90
20973;DHT22;10645;52.370;13.314;2023-04-06T04:54:13;-3.50;99.90
20973;DHT22;10645;52.370;13.314;2023-04-06T04:56:41;-3.50;99.90
20973;DHT22;10645;52.370;13.314;2023-04-06T04:59:37;-3.50;99.90
20973;DHT22;10645;52.370;13.314;2023-04-06T05:02:12;-3.50;99.90
20973;DHT22;10645;52.370;13.314;2023-04-06T05:04:48;-3.40;99.90
20973;DHT22;10645;52.370;13.314;2023-04-06T05:07:19;-3.40;99.90
20973;DHT22;10645;52.370;13.314;2023-04-06T05:09:46;-3.30;99.90
20973;DHT22;10645;52.370;13.314;2023-04-06T05:12:13;-3.30;99.90
20973;DHT22;10645;52.370;13.314;2023-04-06T05:14:50;-3.20;99.90
20973;DHT22;10645;52.370;13.314;2023-04-06T05:17:18;-3.20;99.90
20973;DHT22;10645;52.370;13.314;2023-04-06T05:19:44;-3.00;99.90
20973;DHT22;10645;52.370;13.314;2023-04-06T05:22:13;-2.90;99.90
20973;DHT22;10645;52.370;13.314;2023-04-06T05:24:43;-2.80;99.90
20973;DHT22;10645;52.370;13.314;2023-04-06T05:27:10;-2.60;99.90
20973;DHT22;10645;52.370;13.314;2023-04-06T05:29:36;-2.40;99.90
20973;DHT22;10645;52.370;13.314;2023-04-06T05:32:03;-2.30;99.90
20973;DHT22;10645;52.370;13.314;2023-04-06T05:34:29;-2.10;99.90
20973;DHT22;10645;52.370;13.314;2023-04-06T05:36:56;-2.00;99.90
20973;DHT22;10645;52.370;13.314;2023-04-06T05:39:24;-1.80;99.90
20973;DHT22;10645;52.370;13.314;2023-04-06T05:41:53;-1.70;99.90
20973;DHT22;10645;52.370;13.314;2023-04-06T05:44:32;-1.60;99.90
20973;DHT22;10645;52.370;13.314;2023-04-06T05:47:06;-1.50;99.90
20973;DHT22;10645;52.370;13.314;2023-04-06T05:49:32;-1.40;99.90
20973;DHT22;10645;52.370;13.314;2023-04-06T05:51:59;-1.30;99.90
20973;DHT22;10645;52.370;13.314;2023-04-06T05:54:25;-1.10;99.90
20973;DHT22;10645;52.370;13.314;2023-04-06T05:56:57;-0.90;99.90
20973;DHT22;10645;52.370;13.314;2023-04-06T05:59:23;-0.80;99.90
20973;DHT22;10645;52.370;13.314;2023-04-06T06:01:50;-0.60;99.90
20973;DHT22;10645;52.370;13.314;2023-04-06T06:04:17;-0.40;99.90
20973;DHT22;10645;52.370;13.314;2023-04-06T06:06:44;-0.30;99.90
20973;DHT22;10645;52.370;13.314;2023-04-06T06:09:14;-0.10;99.90
20973;DHT22;10645;52.370;13.314;2023-04-06T06:11:48;0.00;99.90
20973;DHT22;10645;52.370;13.314;2023-04-06T06:14:17;0.30;99.90
20973;DHT22;10645;52.370;13.314;2023-04-06T06:16:43;0.40;99.90
20973;DHT22;10645;52.370;13.314;2023-04-06T06:19:11;0.60;99.90
20973;DHT22;10645;52.370;13.314;2023-04-06T06:21:38;0.70;99.90
20973;DHT22;10645;52.370;13.314;2023-04-06T06:24:06;0.90;99.90
20973;DHT22;10645;52.370;13.314;2023-04-06T06:26:33;1.10;99.90
20973;DHT22;10645;52.370;13.314;2023-04-06T06:29:01;1.20;99.90
20973;DHT22;10645;52.370;13.314;2023-04-06T06:31:28;1.40;99.90
20973;DHT22;10645;52.370;13.314;2023-04-06T06:33:54;1.50;99.90
20973;DHT22;10645;52.370;13.314;2023-04-06T06:36:21;1.70;99.90
20973;DHT22;10645;52.370;13.314;2023-04-06T06:38:47;1.80;99.90
20973;DHT22;10645;52.370;13.314;2023-04-06T06:41:15;2.00;99.90
20973;DHT22;10645;52.370;13.314;2023-04-06T06:43:42;2.20;99.90
20973;DHT22;10645;52.370;13.314;2023-04-06T06:46:10;2.30;99.90
20973;DHT22;10645;52.370;13.314;2023-04-06T06:48:36;2.50;99.90
20973;DHT22;10645;52.370;13.314;2023-04-06T06:51:02;2.70;99.90
20973;DHT22;10645;52.370;13.314;2023-04-06T06:53:28;2.80;99.90
20973;DHT22;10645;52.370;13.314;2023-04-06T06:55:55;2.90;99.90
20973;DHT22;10645;52.370;13.314;2023-04-06T06:58:22;3.00;99.90
20973;DHT22;10645;52.370;13.314;2023-04-06T07:00:48;3.20;99.90
20973;DHT22;10645;52.370;13.314;2023-04-06T07:03:15;3.40;99.90
20973;DHT22;10645;52.370;13.314;2023-04-06T07:05:47;3.50;99.90
20973;DHT22;10645;52.370;13.314;2023-04-06T07:08:19;3.70;99.90
20973;DHT22;10645;52.370;13.314;2023-04-06T07:10:46;3.80;99.90
20973;DHT22;10645;52.370;13.314;2023-04-06T07:13:14;4.00;99.90
20973;DHT22;10645;52.370;13.314;2023-04-06T07:15:46;4.00;99.90
20973;DHT22;10645;52.370;13.314;2023-04-06T07:18:12;4.20;99.90
20973;DHT22;10645;52.370;13.314;2023-04-06T07:20:38;4.30;99.90
20973;DHT22;10645;52.370;13.314;2023-04-06T07:23:05;4.50;99.90
20973;DHT22;10645;52.370;13.314;2023-04-06T07:25:31;4.60;99.90
20973;DHT22;10645;52.370;13.314;2023-04-06T07:27:57;4.60;99.90
20973;DHT22;10645;52.370;13.314;2023-04-06T07:30:24;4.90;99.90
20973;DHT22;10645;52.370;13.314;2023-04-06T07:32:52;4.90;99.90
20973;DHT22;10645;52.370;13.314;2023-04-06T07:35:26;5.10;99.90
20973;DHT22;10645;52.370;13.314;2023-04-06T07:37:53;5.30;99.90
20973;DHT22;10645;52.370;13.314;2023-04-06T07:40:19;5.40;99.90
20973;DHT22;10645;52.370;13.314;2023-04-06T07:42:46;5.70;99.90
20973;DHT22;10645;52.370;13.314;2023-04-06T07:45:13;5.80;99.90
20973;DHT22;10645;52.370;13.314;2023-04-06T07:47:39;5.90;99.90
20973;DHT22;10645;52.370;13.314;2023-04-06T07:50:05;6.10;99.90
20973;DHT22;10645;52.370;13.314;2023-04-06T07:52:32;6.20;99.90
20973;DHT22;10645;52.370;13.314;2023-04-06T07:54:59;6.40;99.90
20973;DHT22;10645;52.370;13.314;2023-04-06T07:57:25;6.50;99.90
20973;DHT22;10645;52.370;13.314;2023-04-06T07:59:51;6.60;99.90
20973;DHT22;10645;52.370;13.314;2023-04-06T08:02:17;6.80;99.90
20973;DHT22;10645;52.370;13.314;2023-04-06T08:04:43;7.00;99.90
20973;DHT22;10645;52.370;13.314;2023-04-06T08:07:10;7.10;99.90
20973;DHT22;10645;52.370;13.314;2023-04-06T08:09:36;7.30;99.90
20973;DHT22;10645;52.370;13.314;2023-04-06T08:12:02;7.50;99.90
20973;DHT22;10645;52.370;13.314;2023-04-06T08:14:28;7.70;99.90
20973;DHT22;10645;52.370;13.314;2023-04-06T08:16:54;7.80;99.90
20973;DHT22;10645;52.370;13.314;2023-04-06T08:19:21;8.10;99.90
20973;DHT22;10645;52.370;13.314;2023-04-06T08:21:47;8.10;99.90
20973;DHT22;10645;52.370;13.314;2023-04-06T08:24:14;8.40;99.90
20973;DHT22;10645;52.370;13.314;2023-04-06T08:26:40;8.50;99.90
20973;DHT22;10645;52.370;13.314;2023-04-06T08:29:06;8.40;99.90
20973;DHT22;10645;52.370;13.314;2023-04-06T08:31:36;8.50;99.90
20973;DHT22;10645;52.370;13.314;2023-04-06T08:34:03;8.50;99.90
20973;DHT22;10645;52.370;13.314;2023-04-06T08:36:29;8.60;99.90
20973;DHT22;10645;52.370;13.314;2023-04-06T08:38:56;8.70;99.90
20973;DHT22;10645;52.370;13.314;2023-04-06T08:41:22;8.90;99.90
20973;DHT22;10645;52.370;13.314;2023-04-06T08:43:52;9.00;99.90
20973;DHT22;10645;52.370;13.314;2023-04-06T08:46:21;9.00;99.90
20973;DHT22;10645;52.370;13.314;2023-04-06T08:48:47;9.00;99.90
20973;DHT22;10645;52.370;13.314;2023-04-06T08:51:17;9.30;99.90
20973;DHT22;10645;52.370;13.314;2023-04-06T08:53:44;9.40;99.90
20973;DHT22;10645;52.370;13.314;2023-04-06T08:56:10;9.30;99.90
20973;DHT22;10645;52.370;13.314;2023-04-06T08:58:39;9.20;99.90
20973;DHT22;10645;52.370;13.314;2023-04-06T09:01:07;9.30;99.90
20973;DHT22;10645;52.370;13.314;2023-04-06T09:03:37;9.50;99.90
20973;DHT22;10645;52.370;13.314;2023-04-06T09:06:04;9.80;99.90
20973;DHT22;10645;52.370;13.314;2023-04-06T09:08:33;10.00;99.90
20973;DHT22;10645;52.370;13.314;2023-04-06T09:11:01;10.10;99.90
20973;DHT22;10645;52.370;13.314;2023-04-06T09:13:28;10.30;99.40
20973;DHT22;10645;52.370;13.314;2023-04-06T09:16:04;10.50;99.90
20973;DHT22;10645;52.370;13.314;2023-04-06T09:18:32;10.70;98.50
20973;DHT22;10645;52.370;13.314;2023-04-06T09:21:03;10.80;99.90
20973;DHT22;10645;52.370;13.314;2023-04-06T09:23:30;10.90;99.40
20973;DHT22;10645;52.370;13.314;2023-04-06T09:26:17;11.00;98.00
20973;DHT22;10645;52.370;13.314;2023-04-06T09:28:53;11.00;97.80
20973;DHT22;10645;52.370;13.314;2023-04-06T09:31:29;11.00;98.40
20973;DHT22;10645;52.370;13.314;2023-04-06T09:33:57;10.90;96.30
20973;DHT22;10645;52.370;13.314;2023-04-06T09:36:33;10.90;96.40
20973;DHT22;10645;52.370;13.314;2023-04-06T09:39:02;11.00;96.40
20973;DHT22;10645;52.370;13.314;2023-04-06T09:44:07;11.50;97.30
20973;DHT22;10645;52.370;13.314;2023-04-06T09:46:41;11.70;95.40
20973;DHT22;10645;52.370;13.314;2023-04-06T09:49:08;11.70;95.30
20973;DHT22;10645;52.370;13.314;2023-04-06T09:54:03;11.20;95.10
20973;DHT22;10645;52.370;13.314;2023-04-06T09:57:07;11.30;95.00
20973;DHT22;10645;52.370;13.314;2023-04-06T10:00:05;11.50;93.60
20973;DHT22;10645;52.370;13.314;2023-04-06T10:03:10;11.30;92.90
20973;DHT22;10645;52.370;13.314;2023-04-06T10:05:53;11.00;92.70
20973;DHT22;10645;52.370;13.314;2023-04-06T10:08:24;10.90;94.00
20973;DHT22;10645;52.370;13.314;2023-04-06T10:10:54;11.10;94.50
20973;DHT22;10645;52.370;13.314;2023-04-06T10:13:22;11.40;94.60
20973;DHT22;10645;52.370;13.314;2023-04-06T10:15:49;11.70;92.00
20973;DHT22;10645;52.370;13.314;2023-04-06T10:18:16;12.10;94.60
20973;DHT22;10645;52.370;13.314;2023-04-06T10:20:53;12.50;92.10
20973;DHT22;10645;52.370;13.314;2023-04-06T10:23:33;12.60;92.60
20973;DHT22;10645;52.370;13.314;2023-04-06T10:26:02;12.40;88.90
20973;DHT22;10645;52.370;13.314;2023-04-06T10:28:33;12.40;90.20
20973;DHT22;10645;52.370;13.314;2023-04-06T10:31:04;12.50;90.10
20973;DHT22;10645;52.370;13.314;2023-04-06T10:33:31;12.50;90.60
20973;DHT22;10645;52.370;13.314;2023-04-06T10:35:57;12.80;90.60
20973;DHT22;10645;52.370;13.314;2023-04-06T10:38:34;12.60;84.80
20973;DHT22;10645;52.370;13.314;2023-04-06T10:41:04;12.70;87.60
20973;DHT22;10645;52.370;13.314;2023-04-06T10:43:34;12.90;88.90
20973;DHT22;10645;52.370;13.314;2023-04-06T10:46:04;13.00;85.30
20973;DHT22;10645;52.370;13.314;2023-04-06T10:48:44;13.30;85.40
20973;DHT22;10645;52.370;13.314;2023-04-06T10:51:17;13.50;88.20
20973;DHT22;10645;52.370;13.314;2023-04-06T10:53:47;13.70;87.30
20973;DHT22;10645;52.370;13.314;2023-04-06T10:56:16;13.50;81.90
20973;DHT22;10645;52.370;13.314;2023-04-06T10:58:52;13.10;78.60
20973;DHT22;10645;52.370;13.314;2023-04-06T11:01:20;12.80;82.20
20973;DHT22;10645;52.370;13.314;2023-04-06T11:03:48;12.90;79.50
20973;DHT22;10645;52.370;13.314;2023-04-06T11:06:28;13.00;79.10
20973;DHT22;10645;52.370;13.314;2023-04-06T11:08:56;12.80;81.50
20973;DHT22;10645;52.370;13.314;2023-04-06T11:11:25;12.70;81.20
20973;DHT22;10645;52.370;13.314;2023-04-06T11:13:56;13.10;80.00
20973;DHT22;10645;52.370;13.314;2023-04-06T11:18:55;13.20;82.70
20973;DHT22;10645;52.370;13.314;2023-04-06T11:21:44;13.20;79.10
20973;DHT22;10645;52.370;13.314;2023-04-06T11:24:21;13.20;80.60
20973;DHT22;10645;52.370;13.314;2023-04-06T11:26:49;12.90;79.00
20973;DHT22;10645;52.370;13.314;2023-04-06T11:29:18;12.80;81.60
20973;DHT22;10645;52.370;13.314;2023-04-06T11:31:49;13.10;81.00
20973;DHT22;10645;52.370;13.314;2023-04-06T11:34:23;13.30;81.70
20973;DHT22;10645;52.370;13.314;2023-04-06T11:36:59;13.30;78.80
20973;DHT22;10645;52.370;13.314;2023-04-06T11:39:27;13.40;81.30
20973;DHT22;10645;52.370;13.314;2023-04-06T11:41:57;13.60;81.90
20973;DHT22;10645;52.370;13.314;2023-04-06T11:44:29;13.50;80.60
20973;DHT22;10645;52.370;13.314;2023-04-06T11:46:57;13.40;81.00
20973;DHT22;10645;52.370;13.314;2023-04-06T11:49:27;13.20;81.40
20973;DHT22;10645;52.370;13.314;2023-04-06T11:51:54;12.60;83.50
20973;DHT22;10645;52.370;13.314;2023-04-06T11:54:35;12.30;80.90
20973;DHT22;10645;52.370;13.314;2023-04-06T11:57:02;12.70;83.10
20973;DHT22;10645;52.370;13.314;2023-04-06T11:59:28;13.00;81.40
20973;DHT22;10645;52.370;13.314;2023-04-06T12:01:55;13.20;80.90
20973;DHT22;10645;52.370;13.314;2023-04-06T12:04:21;13.30;79.80
20973;DHT22;10645;52.370;13.314;2023-04-06T12:06:48;13.60;80.00
20973;DHT22;10645;52.370;13.314;2023-04-06T12:09:14;13.50;80.10
20973;DHT22;10645;52.370;13.314;2023-04-06T12:11:40;13.80;79.70
20973;DHT22;10645;52.370;13.314;2023-04-06T12:14:06;13.90;78.60
20973;DHT22;10645;52.370;13.314;2023-04-06T12:16:34;13.70;81.10
20973;DHT22;10645;52.370;13.314;2023-04-06T12:19:00;13.70;78.80
20973;DHT22;10645;52.370;13.314;2023-04-06T12:21:27;13.60;77.90
20973;DHT22;10645;52.370;13.314;2023-04-06T12:23:54;13.60;76.70
20973;DHT22;10645;52.370;13.314;2023-04-06T12:26:24;13.20;78.10
20973;DHT22;10645;52.370;13.314;2023-04-06T12:28:50;13.10;81.60
20973;DHT22;10645;52.370;13.314;2023-04-06T12:31:18;12.70;79.50
20973;DHT22;10645;52.370;13.314;2023-04-06T12:33:47;12.80;79.30
20973;DHT22;10645;52.370;13.314;2023-04-06T12:36:15;12.80;80.10
20973;DHT22;10645;52.370;13.314;2023-04-06T12:38:41;12.90;83.30
20973;DHT22;10645;52.370;13.314;2023-04-06T12:41:10;12.80;78.60
20973;DHT22;10645;52.370;13.314;2023-04-06T12:43:36;13.00;82.80
20973;DHT22;10645;52.370;13.314;2023-04-06T12:46:02;13.10;81.60
20973;DHT22;10645;52.370;13.314;2023-04-06T12:48:28;13.30;82.00
20973;DHT22;10645;52.370;13.314;2023-04-06T12:51:02;13.10;79.20
20973;DHT22;10645;52.370;13.314;2023-04-06T12:53:29;13.10;80.40
20973;DHT22;10645;52.370;13.314;2023-04-06T12:55:55;13.00;78.40
20973;DHT22;10645;52.370;13.314;2023-04-06T12:58:24;13.00;78.20
20973;DHT22;10645;52.370;13.314;2023-04-06T13:00:51;13.00;81.10
20973;DHT22;10645;52.370;13.314;2023-04-06T13:03:18;13.00;78.50
20973;DHT22;10645;52.370;13.314;2023-04-06T13:05:45;13.00;82.90
20973;DHT22;10645;52.370;13.314;2023-04-06T13:08:12;13.00;79.90
20973;DHT22;10645;52.370;13.314;2023-04-06T13:10:42;12.80;76.50
20973;DHT22;10645;52.370;13.314;2023-04-06T13:13:08;12.80;80.70
20973;DHT22;10645;52.370;13.314;2023-04-06T13:15:34;12.40;79.60
20973;DHT22;10645;52.370;13.314;2023-04-06T13:18:02;12.30;80.20
20973;DHT22;10645;52.370;13.314;2023-04-06T13:20:29;12.30;81.50
20973;DHT22;10645;52.370;13.314;2023-04-06T13:22:55;12.30;82.70
20973;DHT22;10645;52.370;13.314;2023-04-06T13:25:21;12.50;79.70
20973;DHT22;10645;52.370;13.314;2023-04-06T13:27:47;12.50;84.70
20973;DHT22;10645;52.370;13.314;2023-04-06T13:30:14;12.70;83.20
20973;DHT22;10645;52.370;13.314;2023-04-06T13:32:41;12.40;78.30
20973;DHT22;10645;52.370;13.314;2023-04-06T13:35:07;12.50;81.40
20973;DHT22;10645;52.370;13.314;2023-04-06T13:37:34;12.40;81.90
20973;DHT22;10645;52.370;13.314;2023-04-06T13:40:02;12.30;84.50
20973;DHT22;10645;52.370;13.314;2023-04-06T13:42:28;12.30;80.00
20973;DHT22;10645;52.370;13.314;2023-04-06T13:44:54;12.40;84.80
20973;DHT22;10645;52.370;13.314;2023-04-06T13:47:20;12.40;82.70
20973;DHT22;10645;52.370;13.314;2023-04-06T13:49:47;12.50;82.60
20973;DHT22;10645;52.370;13.314;2023-04-06T13:52:13;12.40;82.50
20973;DHT22;10645;52.370;13.314;2023-04-06T13:54:39;12.30;80.90
20973;DHT22;10645;52.370;13.314;2023-04-06T13:57:05;12.20;81.50
20973;DHT22;10645;52.370;13.314;2023-04-06T13:59:34;12.10;82.00
20973;DHT22;10645;52.370;13.314;2023-04-06T14:02:02;11.90;80.60
20973;DHT22;10645;52.370;13.314;2023-04-06T14:04:29;11.80;83.50
20973;DHT22;10645;52.370;13.314;2023-04-06T14:06:55;11.70;80.80
20973;DHT22;10645;52.370;13.314;2023-04-06T14:09:21;11.70;81.40
20973;DHT22;10645;52.370;13.314;2023-04-06T14:11:47;11.60;82.90
20973;DHT22;10645;52.370;13.314;2023-04-06T14:14:13;11.60;86.20
20973;DHT22;10645;52.370;13.314;2023-04-06T14:16:40;11.50;83.10
20973;DHT22;10645;52.370;13.314;2023-04-06T14:19:14;11.40;85.80
20973;DHT22;10645;52.370;13.314;2023-04-06T14:21:47;11.50;88.00
20973;DHT22;10645;52.370;13.314;2023-04-06T14:24:14;11.50;85.90
20973;DHT22;10645;52.370;13.314;2023-04-06T14:26:42;11.50;84.70
20973;DHT22;10645;52.370;13.314;2023-04-06T14:29:09;11.60;88.70
20973;DHT22;10645;52.370;13.314;2023-04-06T14:31:35;11.60;89.10
20973;DHT22;10645;52.370;13.314;2023-04-06T14:34:02;11.40;85.10
20973;DHT22;10645;52.370;13.314;2023-04-06T14:36:32;11.20;85.60
20973;DHT22;10645;52.370;13.314;2023-04-06T14:39:05;11.10;87.30
20973;DHT22;10645;52.370;13.314;2023-04-06T14:41:32;11.00;87.60
20973;DHT22;10645;52.370;13.314;2023-04-06T14:43:59;11.00;87.20
20973;DHT22;10645;52.370;13.314;2023-04-06T14:46:26;11.10;87.50
20973;DHT22;10645;52.370;13.314;2023-04-06T14:48:56;11.00;85.50
20973;DHT22;10645;52.370;13.314;2023-04-06T14:51:26;11.10;85.70
20973;DHT22;10645;52.370;13.314;2023-04-06T14:53:56;11.10;86.90
20973;DHT22;10645;52.370;13.314;2023-04-06T14:56:23;11.10;86.40
20973;DHT22;10645;52.370;13.314;2023-04-06T14:58:50;11.10;89.20
20973;DHT22;10645;52.370;13.314;2023-04-06T15:01:18;11.00;87.10
20973;DHT22;10645;52.370;13.314;2023-04-06T15:03:44;10.90;86.80
20973;DHT22;10645;52.370;13.314;2023-04-06T15:06:14;10.90;86.40
20973;DHT22;10645;52.370;13.314;2023-04-06T15:08:42;10.90;85.40
20973;DHT22;10645;52.370;13.314;2023-04-06T15:11:09;11.00;87.90
20973;DHT22;10645;52.370;13.314;2023-04-06T15:13:35;10.90;87.30
20973;DHT22;10645;52.370;13.314;2023-04-06T15:16:01;10.90;88.60
20973;DHT22;10645;52.370;13.314;2023-04-06T15:18:28;10.90;88.80
20973;DHT22;10645;52.370;13.314;2023-04-06T15:20:54;10.80;87.70
20973;DHT22;10645;52.370;13.314;2023-04-06T15:23:20;10.80;88.90
20973;DHT22;10645;52.370;13.314;2023-04-06T15:25:47;10.70;88.20
20973;DHT22;10645;52.370;13.314;2023-04-06T15:28:13;10.70;86.80
20973;DHT22;10645;52.370;13.314;2023-04-06T15:30:39;10.70;88.50
20973;DHT22;10645;52.370;13.314;2023-04-06T15:33:07;10.60;87.40
20973;DHT22;10645;52.370;13.314;2023-04-06T15:35:34;10.60;87.10
20973;DHT22;10645;52.370;13.314;2023-04-06T15:38:05;10.50;87.80